createdAt,value
2018-10-02T00:02:39.894Z,2.30
2018-10-02T00:05:08.877Z,2.30
2018-10-02T00:07:37.917Z,2.50
2018-10-02T00:10:06.931Z,2.70
2018-10-02T01:02:43.856Z,3.60
2018-10-02T01:05:12.859Z,3.70
2018-10-02T01:07:41.828Z,3.90
2018-10-02T01:10:10.857Z,4.10
2018-10-02T02:02:38.660Z,4.70
2018-10-02T02:05:08.218Z,4.80
2018-10-02T02:07:37.403Z,5.00
2018-10-02T02:10:06.657Z,5.20
2018-10-02T03:02:41.704Z,5.10
2018-10-02T03:05:10.699Z,5.20
2018-10-02T03:07:39.705Z,5.40
2018-10-02T04:02:42.499Z,5.20
2018-10-02T04:05:11.533Z,5.30
2018-10-02T04:07:40.536Z,5.50
2018-10-02T04:10:09.906Z,5.70
2018-10-02T05:02:41.560Z,5.10
2018-10-02T05:05:10.591Z,5.20
2018-10-02T05:07:39.592Z,5.40
2018-10-02T05:10:09.385Z,5.50
2018-10-02T06:02:39.693Z,5.30
2018-10-02T06:05:08.701Z,5.50
2018-10-02T06:07:37.723Z,5.70
2018-10-02T06:10:07.408Z,6.00
2018-10-02T07:02:39.646Z,8.40
2018-10-02T07:05:08.397Z,8.70
2018-10-02T07:07:37.457Z,9.10
2018-10-02T07:10:07.296Z,9.50
2018-10-02T08:02:38.535Z,10.10
2018-10-02T08:05:07.625Z,10.50
2018-10-02T08:07:36.576Z,10.90
2018-10-02T08:10:05.598Z,11.00
2018-10-02T16:02:44.431Z,7.60
2018-10-02T16:05:13.598Z,7.50
2018-10-02T16:07:43.663Z,7.50
2018-10-02T17:02:39.943Z,6.90
2018-10-02T17:05:09.198Z,6.90
2018-10-02T17:07:38.246Z,7.00
2018-10-02T17:10:07.409Z,7.20
2018-10-02T18:02:40.571Z,7.70
2018-10-02T18:05:09.615Z,7.80
2018-10-02T18:07:38.847Z,8.00
2018-10-02T18:10:09.764Z,8.10
2018-10-02T19:02:40.736Z,8.40
2018-10-02T19:05:09.749Z,8.50
2018-10-02T19:07:38.808Z,8.60
2018-10-02T19:10:07.950Z,8.80
2018-10-02T20:02:45.996Z,8.40
2018-10-02T20:05:15.050Z,8.50
2018-10-02T20:07:44.073Z,8.60
2018-10-02T20:10:13.273Z,8.80
2018-10-02T21:02:36.966Z,8.60
2018-10-02T21:05:06.068Z,8.60
2018-10-02T21:07:35.082Z,8.70
2018-10-02T21:10:04.158Z,9.00
2018-10-02T22:02:59.036Z,8.30
2018-10-02T22:05:28.131Z,8.40
2018-10-02T22:07:57.119Z,8.60
2018-10-02T22:10:26.237Z,8.80
2018-10-02T23:02:42.146Z,7.10
2018-10-02T23:05:11.155Z,7.10
2018-10-02T23:07:40.177Z,7.20
